Time;durP1;ratioP1;P1;durP2;ratioP2;P2;SDS_P1;SDS_P2;PMS_P1;PMS_P2;Temp;Humidity;BMP_temperature;BMP_pressure;BME280_temperature;BME280_humidity;BME280_pressure;Samples;Min_cycle;Max_cycle;Signal;HPM_P1;HPM_P2
2022/04/10 00:01:19;;;;;;;2.47;1.87;;;6.30;67.80;;;;;;956780;146;27873;-73
2022/04/10 00:03:46;;;;;;;2.93;1.77;;;6.20;67.90;;;;;;981616;146;27367;-73
2022/04/10 00:06:12;;;;;;;2.50;1.57;;;6.10;67.80;;;;;;964332;146;27242;-73
2022/04/10 00:08:39;;;;;;;3.07;2.10;;;6.10;68.10;;;;;;950334;146;27359;-73
2022/04/10 00:11:06;;;;;;;2.80;1.67;;;6.00;68.20;;;;;;964322;146;27412;-73
2022/04/10 00:13:32;;;;;;;1.77;1.67;;;5.90;68.20;;;;;;943745;146;27274;-73
2022/04/10 00:15:59;;;;;;;3.73;1.53;;;5.80;68.50;;;;;;943992;151;27363;-73
2022/04/10 00:18:25;;;;;;;1.90;1.80;;;5.70;68.50;;;;;;951706;150;27811;-73
2022/04/10 00:20:52;;;;;;;1.77;1.67;;;5.60;68.60;;;;;;955185;146;27377;-73
2022/04/10 00:23:18;;;;;;;2.07;1.80;;;5.50;68.80;;;;;;936547;148;27360;-74
2022/04/10 00:25:45;;;;;;;2.57;1.90;;;5.50;68.80;;;;;;966617;145;27283;-73
2022/04/10 00:28:12;;;;;;;2.07;1.93;;;5.40;68.90;;;;;;970582;145;27662;-73
2022/04/10 00:30:38;;;;;;;1.70;1.60;;;5.30;69.00;;;;;;965700;145;27386;-73
2022/04/10 00:33:05;;;;;;;3.13;1.80;;;5.30;69.20;;;;;;933442;152;27262;-73
2022/04/10 00:35:31;;;;;;;2.80;1.80;;;5.20;69.20;;;;;;973304;145;27230;-73
2022/04/10 00:37:58;;;;;;;4.40;1.97;;;5.10;69.30;;;;;;949151;151;27365;-73
2022/04/10 00:40:25;;;;;;;1.90;1.80;;;5.00;69.40;;;;;;922783;152;27405;-73
2022/04/10 00:42:51;;;;;;;2.43;1.90;;;4.90;69.50;;;;;;971469;145;27328;-73
2022/04/10 00:45:18;;;;;;;2.27;1.80;;;4.90;69.60;;;;;;969447;145;27340;-73
2022/04/10 00:47:45;;;;;;;2.90;2.00;;;4.80;69.70;;;;;;973148;145;27256;-73
2022/04/10 00:50:11;;;;;;;3.23;1.90;;;4.70;69.80;;;;;;972535;145;27374;-73
2022/04/10 00:52:37;;;;;;;3.03;1.90;;;4.60;69.90;;;;;;975076;145;27229;-73
2022/04/10 00:55:04;;;;;;;2.33;2.10;;;4.60;70.00;;;;;;967462;145;27305;-73
2022/04/10 00:57:31;;;;;;;1.57;1.47;;;4.50;70.20;;;;;;966280;146;27431;-73
2022/04/10 00:59:57;;;;;;;1.80;1.70;;;4.50;70.20;;;;;;962647;148;27258;-73
2022/04/10 01:02:24;;;;;;;2.63;2.40;;;4.40;70.30;;;;;;968690;145;27256;-73
2022/04/10 01:04:51;;;;;;;1.83;1.73;;;4.30;70.30;;;;;;974513;145;27286;-73
2022/04/10 01:07:17;;;;;;;2.27;2.07;;;4.30;70.40;;;;;;968283;145;27316;-73
2022/04/10 01:09:44;;;;;;;2.80;1.80;;;4.20;70.60;;;;;;963010;145;27895;-73
2022/04/10 01:12:10;;;;;;;1.87;1.77;;;4.20;70.70;;;;;;948736;148;27361;-73
2022/04/10 01:14:37;;;;;;;1.97;1.80;;;4.10;70.70;;;;;;960125;145;27415;-73
2022/04/10 01:17:04;;;;;;;2.27;2.00;;;4.10;70.90;;;;;;969253;148;27295;-73
2022/04/10 01:19:30;;;;;;;1.70;1.60;;;4.00;71.00;;;;;;963835;148;27672;-73
2022/04/10 01:21:56;;;;;;;1.80;1.70;;;4.00;71.10;;;;;;966061;145;27377;-73
2022/04/10 01:24:23;;;;;;;3.23;2.40;;;3.90;71.30;;;;;;967539;145;27314;-73
2022/04/10 01:26:50;;;;;;;1.77;1.50;;;3.90;71.30;;;;;;951699;151;27391;-73
2022/04/10 01:29:16;;;;;;;1.90;1.80;;;3.80;71.40;;;;;;952146;146;27311;-73
2022/04/10 01:31:43;;;;;;;3.37;2.03;;;3.80;71.50;;;;;;943898;149;27466;-73
2022/04/10 01:34:10;;;;;;;2.40;2.20;;;3.80;71.60;;;;;;923902;153;27288;-73
2022/04/10 01:36:36;;;;;;;2.30;2.10;;;3.70;71.70;;;;;;934647;153;27315;-73
2022/04/10 01:39:03;;;;;;;1.90;1.80;;;3.70;71.70;;;;;;947322;150;27294;-73
2022/04/10 01:41:30;;;;;;;2.40;2.20;;;3.70;71.80;;;;;;944914;146;27317;-73
2022/04/10 01:43:56;;;;;;;5.03;2.30;;;3.60;71.90;;;;;;953065;148;27327;-73
2022/04/10 01:46:22;;;;;;;2.67;1.97;;;3.60;72.00;;;;;;964416;147;27403;-73
2022/04/10 01:48:49;;;;;;;2.13;1.90;;;3.60;72.10;;;;;;951354;148;27295;-73
2022/04/10 01:51:16;;;;;;;2.13;1.97;;;3.50;72.00;;;;;;947114;148;27372;-73
2022/04/10 01:53:42;;;;;;;2.20;2.00;;;3.50;72.10;;;;;;951647;151;27954;-73
2022/04/10 01:56:09;;;;;;;2.27;2.00;;;3.50;72.10;;;;;;951932;150;27311;-73
2022/04/10 01:58:35;;;;;;;1.93;1.83;;;3.40;72.10;;;;;;951790;150;27333;-73
2022/04/10 02:01:02;;;;;;;2.50;1.90;;;3.40;72.20;;;;;;951550;148;27236;-73
2022/04/10 02:03:28;;;;;;;2.10;1.90;;;3.40;72.30;;;;;;965906;146;27273;-73
2022/04/10 02:05:55;;;;;;;2.53;1.87;;;3.40;72.40;;;;;;954417;146;27372;-73
2022/04/10 02:08:22;;;;;;;1.90;1.70;;;3.30;72.30;;;;;;947569;151;27292;-74
2022/04/10 02:10:48;;;;;;;3.33;2.23;;;3.30;72.50;;;;;;944111;148;27284;-73
2022/04/10 02:13:15;;;;;;;3.07;1.83;;;3.30;72.50;;;;;;940201;146;27281;-73
2022/04/10 02:15:41;;;;;;;2.73;2.00;;;3.30;72.60;;;;;;946837;151;27319;-74
2022/04/10 02:18:08;;;;;;;2.77;1.80;;;3.20;72.70;;;;;;951642;150;27248;-74
2022/04/10 02:20:35;;;;;;;2.20;2.00;;;3.20;72.90;;;;;;951852;150;27798;-74
2022/04/10 02:23:01;;;;;;;2.30;2.10;;;3.20;73.10;;;;;;951056;150;27399;-74
2022/04/10 02:25:28;;;;;;;1.77;1.67;;;3.20;73.30;;;;;;953804;145;27296;-74
2022/04/10 02:27:54;;;;;;;5.23;2.30;;;3.20;73.30;;;;;;973021;145;27281;-74
2022/04/10 02:30:21;;;;;;;2.43;2.23;;;3.20;73.40;;;;;;964883;147;27239;-74
2022/04/10 02:32:48;;;;;;;2.47;2.17;;;3.30;73.40;;;;;;971451;145;27430;-74
2022/04/10 02:35:14;;;;;;;2.30;2.00;;;3.30;73.60;;;;;;972627;145;27378;-74
2022/04/10 02:37:41;;;;;;;3.17;2.03;;;3.30;73.40;;;;;;968955;145;27289;-74
2022/04/10 02:40:07;;;;;;;4.63;2.57;;;3.30;73.50;;;;;;980526;144;27382;-74
2022/04/10 02:42:37;;;;;;;1.87;1.77;;;3.40;73.70;;;;;;979904;145;27382;-74
2022/04/10 02:45:03;;;;;;;2.40;1.73;;;3.40;73.50;;;;;;972249;147;27286;-74
2022/04/10 02:47:33;;;;;;;2.97;2.70;;;3.40;73.50;;;;;;955038;145;27325;-74
2022/04/10 02:49:59;;;;;;;2.30;2.10;;;3.40;73.50;;;;;;963270;145;27327;-74
2022/04/10 02:52:26;;;;;;;2.30;2.10;;;3.40;73.40;;;;;;971866;145;27764;-74
2022/04/10 02:54:52;;;;;;;2.40;2.00;;;3.40;73.40;;;;;;970215;145;27443;-76
2022/04/10 02:57:19;;;;;;;2.20;2.00;;;3.40;73.60;;;;;;976715;145;27266;-76
2022/04/10 02:59:46;;;;;;;2.93;2.63;;;3.40;73.60;;;;;;972537;146;27322;-76
2022/04/10 03:02:12;;;;;;;2.83;2.10;;;3.40;73.70;;;;;;943502;151;27914;-76
2022/04/10 03:04:39;;;;;;;3.80;2.10;;;3.40;73.70;;;;;;946932;151;27406;-76
2022/04/10 03:07:05;;;;;;;3.03;2.10;;;3.40;73.70;;;;;;943516;151;27268;-76
2022/04/10 03:09:32;;;;;;;2.90;2.47;;;3.40;73.60;;;;;;947417;150;27292;-76
2022/04/10 03:11:59;;;;;;;1.90;1.80;;;3.30;73.50;;;;;;943806;151;27349;-76
2022/04/10 03:14:25;;;;;;;2.47;2.30;;;3.30;73.70;;;;;;941347;151;27327;-76
2022/04/10 03:16:52;;;;;;;2.23;2.13;;;3.30;73.80;;;;;;931500;151;27394;-76
2022/04/10 03:19:18;;;;;;;4.20;2.27;;;3.30;73.90;;;;;;942189;151;27253;-76
2022/04/10 03:21:45;;;;;;;2.93;2.20;;;3.30;73.90;;;;;;940800;149;27360;-76
2022/04/10 03:24:11;;;;;;;2.23;2.03;;;3.20;73.90;;;;;;946645;151;27325;-76
2022/04/10 03:26:38;;;;;;;2.60;2.33;;;3.20;73.90;;;;;;941204;151;27358;-76
2022/04/10 03:29:05;;;;;;;2.30;2.10;;;3.20;73.90;;;;;;935724;152;27259;-76
2022/04/10 03:31:31;;;;;;;2.60;2.33;;;3.20;73.90;;;;;;935089;152;27361;-76
2022/04/10 03:33:58;;;;;;;2.60;2.40;;;3.10;74.10;;;;;;928229;152;27424;-76
2022/04/10 03:36:24;;;;;;;3.43;2.77;;;3.10;74.10;;;;;;934440;153;27325;-76
2022/04/10 03:38:51;;;;;;;3.07;2.70;;;3.10;74.30;;;;;;935043;151;27356;-76
2022/04/10 03:41:18;;;;;;;2.77;2.47;;;3.10;74.40;;;;;;931903;152;27343;-76
2022/04/10 03:43:44;;;;;;;2.60;2.40;;;3.10;74.60;;;;;;932803;153;27404;-76
2022/04/10 03:46:11;;;;;;;2.10;2.00;;;3.00;74.60;;;;;;934927;150;27228;-76
2022/04/10 03:48:37;;;;;;;3.60;2.23;;;3.00;74.70;;;;;;946105;149;27276;-76
2022/04/10 03:51:04;;;;;;;3.00;2.70;;;3.00;74.80;;;;;;930941;150;27396;-76
2022/04/10 03:53:30;;;;;;;2.90;2.60;;;3.00;74.90;;;;;;927767;153;27329;-76
2022/04/10 03:55:57;;;;;;;2.33;2.17;;;3.00;75.00;;;;;;929068;153;27260;-76
2022/04/10 03:58:24;;;;;;;2.80;2.60;;;2.90;75.00;;;;;;934582;153;27320;-76
2022/04/10 04:00:51;;;;;;;3.03;2.43;;;2.90;75.10;;;;;;928572;152;27382;-76
2022/04/10 04:03:17;;;;;;;3.63;2.33;;;2.90;75.20;;;;;;934690;153;27373;-76
2022/04/10 04:05:43;;;;;;;2.50;2.30;;;2.90;75.30;;;;;;930331;152;27386;-76
2022/04/10 04:08:10;;;;;;;2.83;2.60;;;2.90;75.30;;;;;;923807;153;27329;-76
2022/04/10 04:10:37;;;;;;;2.50;2.30;;;2.90;75.30;;;;;;935969;152;27331;-76
2022/04/10 04:13:03;;;;;;;2.47;2.27;;;2.90;75.40;;;;;;928252;155;27453;-76
2022/04/10 04:15:30;;;;;;;2.67;2.47;;;2.90;75.40;;;;;;932759;151;27368;-76
2022/04/10 04:17:56;;;;;;;2.60;2.27;;;2.90;75.50;;;;;;936385;152;27272;-76
2022/04/10 04:20:23;;;;;;;2.20;2.10;;;2.90;75.50;;;;;;926043;153;27303;-76
2022/04/10 04:22:49;;;;;;;2.63;2.43;;;2.90;75.50;;;;;;932650;152;27325;-76
2022/04/10 04:25:17;;;;;;;2.33;2.13;;;2.80;75.50;;;;;;928232;153;27329;-76
2022/04/10 04:27:43;;;;;;;3.10;2.50;;;2.80;75.50;;;;;;939041;152;27793;-76
2022/04/10 04:30:09;;;;;;;2.67;2.47;;;2.80;75.50;;;;;;935183;152;27338;-76
2022/04/10 04:32:36;;;;;;;3.13;2.57;;;2.80;75.70;;;;;;926792;153;27395;-76
2022/04/10 04:35:02;;;;;;;3.47;2.90;;;2.70;75.80;;;;;;926915;155;27316;-76
2022/04/10 04:37:29;;;;;;;2.63;2.43;;;2.70;76.70;;;;;;944312;150;27464;-76
2022/04/10 04:39:56;;;;;;;3.00;2.63;;;2.70;76.10;;;;;;939632;152;27327;-76
2022/04/10 04:42:22;;;;;;;4.00;2.43;;;2.70;76.30;;;;;;933976;152;27312;-76
2022/04/10 04:44:49;;;;;;;3.63;2.43;;;2.70;76.30;;;;;;939808;150;27418;-76
2022/04/10 04:47:15;;;;;;;2.73;2.53;;;2.70;76.30;;;;;;942758;152;27443;-76
2022/04/10 04:49:42;;;;;;;3.20;2.90;;;2.70;76.40;;;;;;942644;151;27423;-76
2022/04/10 04:52:08;;;;;;;3.37;2.67;;;2.70;76.50;;;;;;948198;150;27402;-76
2022/04/10 04:54:35;;;;;;;3.60;2.87;;;2.70;76.60;;;;;;931346;154;27284;-76
2022/04/10 04:57:02;;;;;;;3.20;2.83;;;2.70;76.60;;;;;;934530;154;27401;-76
2022/04/10 04:59:28;;;;;;;2.43;2.23;;;2.70;76.70;;;;;;931352;152;27350;-76
2022/04/10 05:01:55;;;;;;;2.47;2.27;;;2.70;76.70;;;;;;940010;152;27320;-76
2022/04/10 05:04:21;;;;;;;3.13;2.50;;;2.70;76.80;;;;;;941487;150;27273;-76
2022/04/10 05:06:48;;;;;;;3.57;2.80;;;2.80;77.00;;;;;;938582;152;27722;-76
2022/04/10 05:09:15;;;;;;;2.80;2.57;;;2.80;77.20;;;;;;937193;152;27389;-76
2022/04/10 05:11:41;;;;;;;2.90;2.70;;;2.80;77.40;;;;;;939716;150;27314;-76
2022/04/10 05:14:08;;;;;;;3.30;2.97;;;2.90;77.70;;;;;;937290;152;27382;-76
2022/04/10 05:16:34;;;;;;;3.33;3.10;;;3.00;78.10;;;;;;938642;152;27399;-76
2022/04/10 05:19:01;;;;;;;2.87;2.67;;;3.10;78.70;;;;;;942351;152;27298;-76
2022/04/10 05:21:27;;;;;;;3.10;2.90;;;3.30;79.80;;;;;;944369;151;27387;-76
2022/04/10 05:23:54;;;;;;;3.07;2.87;;;3.50;80.10;;;;;;941470;151;27395;-76
2022/04/10 05:26:21;;;;;;;3.03;2.83;;;3.90;81.80;;;;;;938526;151;27303;-76
2022/04/10 05:28:47;;;;;;;2.73;2.53;;;4.30;82.50;;;;;;937081;149;27452;-76
2022/04/10 05:31:14;;;;;;;3.53;3.20;;;4.80;83.10;;;;;;934981;151;27384;-76
2022/04/10 05:33:40;;;;;;;2.80;2.60;;;5.30;83.30;;;;;;928027;153;27347;-76
2022/04/10 05:36:07;;;;;;;4.47;3.00;;;5.90;83.50;;;;;;933804;151;27393;-74
2022/04/10 05:38:34;;;;;;;3.17;2.87;;;6.50;83.50;;;;;;929915;153;27381;-74
2022/04/10 05:41:00;;;;;;;3.00;2.80;;;7.10;84.50;;;;;;932332;153;27329;-74
2022/04/10 05:43:28;;;;;;;2.97;2.67;;;7.80;83.30;;;;;;928265;155;27293;-74
2022/04/10 05:45:53;;;;;;;2.87;2.67;;;8.40;82.70;;;;;;931784;151;27298;-74
2022/04/10 05:48:20;;;;;;;4.77;3.07;;;9.10;82.10;;;;;;932121;153;27412;-74
2022/04/10 05:50:46;;;;;;;4.57;3.13;;;9.80;81.20;;;;;;935504;153;27407;-74
2022/04/10 05:53:13;;;;;;;2.97;2.70;;;10.40;80.20;;;;;;930116;153;27312;-75
2022/04/10 05:55:40;;;;;;;2.70;2.50;;;11.10;78.90;;;;;;928439;155;27372;-75
2022/04/10 05:58:06;;;;;;;3.67;2.40;;;11.60;76.90;;;;;;927086;153;27286;-75
2022/04/10 06:00:33;;;;;;;2.97;2.70;;;12.10;74.50;;;;;;930825;151;27420;-75
2022/04/10 06:03:02;;;;;;;2.70;2.50;;;12.50;72.10;;;;;;920803;153;27450;-75
2022/04/10 06:05:29;;;;;;;3.80;2.60;;;12.80;70.90;;;;;;920786;156;27338;-74
2022/04/10 06:07:55;;;;;;;3.23;2.83;;;13.10;70.90;;;;;;922155;153;27305;-75
2022/04/10 06:10:22;;;;;;;3.80;2.77;;;13.40;70.90;;;;;;932438;153;27298;-76
2022/04/10 06:12:48;;;;;;;2.63;2.43;;;13.80;71.20;;;;;;934591;153;27443;-75
2022/04/10 06:15:21;;;;;;;3.00;2.50;;;14.30;70.40;;;;;;928109;153;27276;-75
2022/04/10 06:17:47;;;;;;;2.80;2.50;;;14.70;68.60;;;;;;929751;153;27350;-75
2022/04/10 06:20:14;;;;;;;2.37;2.17;;;15.00;66.50;;;;;;935441;153;27325;-75
2022/04/10 06:22:41;;;;;;;2.67;2.47;;;15.20;65.40;;;;;;936293;152;27347;-75
2022/04/10 06:25:08;;;;;;;2.80;2.60;;;15.20;63.00;;;;;;936624;151;27365;-75
2022/04/10 06:27:34;;;;;;;3.47;2.53;;;15.10;62.00;;;;;;934516;153;27250;-74
2022/04/10 06:30:00;;;;;;;3.07;2.40;;;15.00;61.30;;;;;;933854;150;27426;-74
2022/04/10 06:32:27;;;;;;;3.63;3.00;;;14.70;60.60;;;;;;932342;150;27372;-74
2022/04/10 06:34:54;;;;;;;2.60;2.40;;;14.40;60.30;;;;;;934649;152;27284;-74
2022/04/10 06:37:20;;;;;;;3.53;2.60;;;14.10;60.10;;;;;;931026;153;27290;-74
2022/04/10 06:39:47;;;;;;;2.20;2.00;;;13.80;60.20;;;;;;933808;153;27397;-74
2022/04/10 06:42:13;;;;;;;2.83;2.40;;;13.50;60.40;;;;;;928696;152;27320;-74
2022/04/10 06:44:40;;;;;;;2.63;2.43;;;13.30;60.60;;;;;;925222;152;27293;-74
2022/04/10 06:47:07;;;;;;;3.30;2.50;;;13.00;60.90;;;;;;931530;151;27313;-74
2022/04/10 06:49:33;;;;;;;3.00;2.40;;;12.80;61.30;;;;;;934914;152;27316;-74
2022/04/10 06:52:00;;;;;;;3.20;2.50;;;12.50;61.20;;;;;;931472;153;27313;-74
2022/04/10 06:54:26;;;;;;;2.60;2.40;;;12.30;61.30;;;;;;935204;152;27363;-74
2022/04/10 06:56:53;;;;;;;3.80;2.23;;;12.10;61.30;;;;;;935152;152;27386;-74
2022/04/10 06:59:19;;;;;;;4.07;2.90;;;11.90;61.40;;;;;;934694;153;27331;-74
2022/04/10 07:01:46;;;;;;;3.03;2.40;;;11.70;61.60;;;;;;934808;153;27776;-74
2022/04/10 07:04:13;;;;;;;2.70;2.47;;;11.50;61.90;;;;;;934754;152;27266;-74
2022/04/10 07:06:39;;;;;;;6.00;2.90;;;11.40;62.20;;;;;;924971;153;27412;-74
2022/04/10 07:09:06;;;;;;;5.00;2.80;;;11.30;62.40;;;;;;927741;153;27476;-74
2022/04/10 07:11:32;;;;;;;4.13;2.63;;;11.10;62.50;;;;;;935288;152;27310;-74
2022/04/10 07:13:59;;;;;;;3.00;2.50;;;11.00;62.70;;;;;;934903;152;27367;-74
2022/04/10 07:16:26;;;;;;;4.53;2.80;;;10.90;63.00;;;;;;930846;153;27291;-73
2022/04/10 07:18:52;;;;;;;3.07;2.60;;;10.80;63.00;;;;;;934762;153;27385;-74
2022/04/10 07:23:41;;;;;;;3.63;2.57;;;10.70;64.00;;;;;;923850;153;27306;-74
2022/04/10 07:23:46;;;;;;;3.87;2.67;;;10.70;63.40;;;;;;930631;153;27350;-74
2022/04/10 07:26:12;;;;;;;3.07;2.20;;;10.70;63.60;;;;;;935123;152;27287;-74
2022/04/10 07:28:39;;;;;;;2.93;2.60;;;10.60;63.80;;;;;;935653;152;27306;-73
2022/04/10 07:31:06;;;;;;;4.27;3.10;;;10.70;63.90;;;;;;931415;152;27381;-74
2022/04/10 07:33:32;;;;;;;2.67;2.40;;;10.70;63.90;;;;;;945176;150;27351;-73
2022/04/10 07:35:58;;;;;;;5.00;2.17;;;10.70;63.90;;;;;;950368;150;27441;-74
2022/04/10 07:38:25;;;;;;;3.67;2.53;;;10.70;64.00;;;;;;935968;152;27435;-74
2022/04/10 07:40:51;;;;;;;3.43;2.30;;;10.80;64.00;;;;;;940681;152;27420;-74
2022/04/10 07:43:18;;;;;;;2.70;2.23;;;10.90;64.10;;;;;;935716;152;27350;-74
2022/04/10 07:48:30;;;;;;;3.60;3.07;;;11.10;64.40;;;;;;938073;152;27394;-74
2022/04/10 07:50:57;;;;;;;4.33;2.47;;;11.20;64.60;;;;;;940105;152;27319;-74
2022/04/10 07:53:23;;;;;;;2.77;2.43;;;11.40;64.40;;;;;;937751;152;27701;-74
2022/04/10 07:55:49;;;;;;;3.50;2.20;;;11.50;64.10;;;;;;933508;152;27367;-74
2022/04/10 07:58:16;;;;;;;4.27;2.80;;;11.70;63.80;;;;;;926930;155;27324;-74
2022/04/10 08:00:42;;;;;;;4.13;2.60;;;11.80;63.40;;;;;;939771;152;27290;-74
2022/04/10 08:03:09;;;;;;;2.67;2.13;;;11.90;63.20;;;;;;940723;152;27262;-74
2022/04/10 08:05:36;;;;;;;2.33;2.10;;;12.00;63.20;;;;;;937929;152;27386;-74
2022/04/10 08:08:02;;;;;;;3.20;2.53;;;12.20;63.10;;;;;;936274;152;27299;-74
2022/04/10 08:10:29;;;;;;;2.80;2.60;;;12.30;62.80;;;;;;934712;152;28005;-74
2022/04/10 08:12:55;;;;;;;4.40;2.57;;;12.50;62.60;;;;;;940124;150;27625;-74
2022/04/10 08:15:22;;;;;;;3.80;2.63;;;12.60;62.80;;;;;;939983;152;27907;-74
2022/04/10 08:17:49;;;;;;;3.30;2.50;;;12.80;62.60;;;;;;940555;152;27374;-74
2022/04/10 08:20:16;;;;;;;2.93;2.23;;;13.10;62.30;;;;;;939550;152;27371;-74
2022/04/10 08:22:42;;;;;;;2.80;2.10;;;13.30;62.50;;;;;;936220;149;27406;-74
2022/04/10 08:25:09;;;;;;;2.97;2.13;;;13.60;62.40;;;;;;930127;152;27409;-74
2022/04/10 08:27:35;;;;;;;2.90;2.30;;;14.00;62.60;;;;;;941861;150;27348;-74
2022/04/10 08:30:02;;;;;;;2.62;2.08;;;14.50;63.50;;;;;;939801;152;27395;-74
2022/04/10 08:32:28;;;;;;;3.22;2.40;;;15.00;64.20;;;;;;934634;151;27415;-74
2022/04/10 08:34:55;;;;;;;2.72;2.00;;;15.70;64.30;;;;;;931377;153;27340;-74
2022/04/10 08:37:21;;;;;;;3.05;1.90;;;16.20;61.30;;;;;;928908;153;27308;-74
2022/04/10 08:39:48;;;;;;;2.05;1.85;;;16.60;59.50;;;;;;930089;153;27346;-74
2022/04/10 08:42:14;;;;;;;2.17;1.95;;;16.80;58.00;;;;;;938145;151;27392;-73
2022/04/10 08:44:41;;;;;;;2.50;2.00;;;16.90;57.30;;;;;;940404;151;27331;-73
2022/04/10 08:47:08;;;;;;;3.42;2.08;;;16.90;56.50;;;;;;932997;151;27281;-74
2022/04/10 08:49:34;;;;;;;3.45;2.45;;;16.80;55.90;;;;;;935084;152;27266;-73
2022/04/10 08:52:01;;;;;;;3.37;2.40;;;16.70;56.10;;;;;;931593;153;27333;-74
2022/04/10 08:54:27;;;;;;;2.33;2.12;;;16.60;55.90;;;;;;926786;153;27334;-74
2022/04/10 08:56:55;;;;;;;4.20;3.55;;;16.60;56.30;;;;;;936322;151;27378;-74
2022/04/10 08:59:21;;;;;;;7.30;2.87;;;16.70;57.00;;;;;;926371;151;27332;-74
2022/04/10 09:01:56;;;;;;;2.58;2.37;;;17.00;58.00;;;;;;928734;151;27322;-74
2022/04/10 09:04:23;;;;;;;4.42;2.42;;;17.40;57.60;;;;;;925721;153;28032;-73
2022/04/10 09:07:02;;;;;;;4.42;2.60;;;17.90;58.40;;;;;;929440;151;27264;-74
2022/04/10 09:09:24;;;;;;;2.52;2.10;;;18.30;57.10;;;;;;931777;152;27297;-74
2022/04/10 09:11:54;;;;;;;3.83;2.25;;;18.70;56.30;;;;;;932330;152;27322;-73
2022/04/10 09:14:21;;;;;;;2.27;2.10;;;18.90;54.70;;;;;;936393;153;27392;-74
2022/04/10 09:16:47;;;;;;;2.10;1.80;;;19.10;54.60;;;;;;937926;151;27346;-75
2022/04/10 09:19:13;;;;;;;2.37;2.05;;;19.20;54.70;;;;;;935165;151;27403;-74
2022/04/10 09:21:40;;;;;;;2.22;1.80;;;19.40;54.30;;;;;;926546;153;27319;-74
2022/04/10 09:24:07;;;;;;;2.70;2.10;;;19.50;54.20;;;;;;925481;153;27252;-74
2022/04/10 09:26:45;;;;;;;2.58;1.55;;;19.70;54.50;;;;;;935578;153;27412;-74
2022/04/10 09:29:12;;;;;;;2.33;2.05;;;19.90;53.50;;;;;;922939;153;27347;-74
2022/04/10 09:31:39;;;;;;;3.05;2.17;;;20.10;53.40;;;;;;955807;150;27360;-74
2022/04/10 09:34:08;;;;;;;2.12;1.77;;;20.20;52.80;;;;;;958795;150;27353;-74
2022/04/10 09:36:35;;;;;;;3.10;1.80;;;20.30;52.50;;;;;;936687;150;27326;-74
2022/04/10 09:39:01;;;;;;;1.85;1.70;;;20.40;52.20;;;;;;941084;152;27330;-74
2022/04/10 09:41:28;;;;;;;2.15;2.00;;;20.50;51.90;;;;;;950430;150;27297;-74
2022/04/10 09:43:55;;;;;;;2.67;2.20;;;20.50;51.50;;;;;;941127;152;27372;-74
2022/04/10 09:46:21;;;;;;;2.85;2.00;;;20.50;51.40;;;;;;941735;152;27322;-74
2022/04/10 09:48:48;;;;;;;2.08;1.87;;;20.50;51.20;;;;;;942669;152;27298;-74
2022/04/10 09:51:14;;;;;;;1.95;1.75;;;20.50;51.00;;;;;;942550;152;27301;-74
2022/04/10 09:53:41;;;;;;;2.60;2.00;;;20.40;50.70;;;;;;942116;152;27448;-74
2022/04/10 09:56:07;;;;;;;2.95;2.27;;;20.40;50.20;;;;;;943348;151;27297;-74
2022/04/10 09:58:34;;;;;;;1.92;1.82;;;20.30;50.00;;;;;;933606;152;27442;-74
2022/04/10 10:01:03;;;;;;;3.27;2.20;;;20.20;50.40;;;;;;930267;152;27414;-74
2022/04/10 10:03:30;;;;;;;3.37;2.20;;;20.20;50.90;;;;;;935322;152;27430;-74
2022/04/10 10:05:54;;;;;;;3.02;2.10;;;20.20;50.60;;;;;;941016;152;27260;-74
2022/04/10 10:08:20;;;;;;;2.37;1.80;;;20.30;50.60;;;;;;937599;152;27319;-74
2022/04/10 10:10:47;;;;;;;1.87;1.72;;;20.40;50.80;;;;;;932453;154;27453;-74
2022/04/10 10:13:14;;;;;;;4.12;2.22;;;20.40;50.80;;;;;;939247;152;27384;-74
2022/04/10 10:15:40;;;;;;;2.90;2.15;;;20.40;49.50;;;;;;942673;152;27300;-74
2022/04/10 10:18:07;;;;;;;2.62;1.82;;;20.40;49.70;;;;;;935740;151;27347;-74
2022/04/10 10:20:34;;;;;;;4.17;2.40;;;20.30;48.40;;;;;;937736;152;27825;-74
2022/04/10 10:23:03;;;;;;;2.58;2.10;;;20.20;48.70;;;;;;935917;150;27389;-74
2022/04/10 10:25:38;;;;;;;2.27;2.00;;;20.10;48.40;;;;;;940916;150;27435;-74
2022/04/10 10:28:38;;;;;;;3.30;1.98;;;19.90;48.40;;;;;;937025;152;27363;-74
2022/04/10 10:31:20;;;;;;;2.62;2.27;;;19.70;48.60;;;;;;939936;150;27321;-74
2022/04/10 10:33:49;;;;;;;3.20;1.75;;;19.50;49.30;;;;;;924571;153;27323;-74
2022/04/10 10:36:16;;;;;;;2.60;2.37;;;19.30;49.20;;;;;;921848;152;27427;-74
2022/04/10 10:38:42;;;;;;;5.30;2.50;;;19.20;48.50;;;;;;931029;151;27379;-74
2022/04/10 10:41:12;;;;;;;3.40;2.65;;;19.10;48.90;;;;;;925049;151;27379;-74
2022/04/10 10:43:38;;;;;;;2.22;2.05;;;18.90;49.20;;;;;;923641;153;27332;-73
2022/04/10 10:46:23;;;;;;;3.00;2.05;;;18.80;49.00;;;;;;933571;153;27416;-73
2022/04/10 10:48:52;;;;;;;3.58;2.17;;;18.70;49.30;;;;;;933497;153;27417;-74
2022/04/10 10:51:18;;;;;;;2.30;2.10;;;18.60;49.30;;;;;;928027;153;27431;-74
2022/04/10 10:53:46;;;;;;;3.27;2.40;;;18.50;49.50;;;;;;935226;152;27326;-73
2022/04/10 10:56:18;;;;;;;2.62;2.42;;;18.40;49.70;;;;;;933279;153;27331;-74
2022/04/10 10:58:44;;;;;;;2.30;2.10;;;18.40;49.60;;;;;;933107;151;27430;-74
2022/04/10 11:01:17;;;;;;;2.55;1.75;;;18.40;50.30;;;;;;934812;151;27310;-74
2022/04/10 11:04:02;;;;;;;2.35;2.15;;;18.30;50.20;;;;;;933770;151;27365;-74
2022/04/10 11:06:28;;;;;;;3.00;2.50;;;18.40;49.40;;;;;;931413;153;27282;-74
2022/04/10 11:08:55;;;;;;;1.98;1.80;;;18.50;49.70;;;;;;927318;152;27339;-73
2022/04/10 11:11:22;;;;;;;1.82;1.72;;;18.40;49.50;;;;;;932626;153;27374;-73
2022/04/10 11:13:48;;;;;;;1.65;1.55;;;18.40;49.50;;;;;;920228;155;27278;-74
2022/04/10 11:16:15;;;;;;;2.35;2.00;;;18.30;49.40;;;;;;929007;153;27296;-74
2022/04/10 11:18:50;;;;;;;2.55;1.80;;;18.30;49.30;;;;;;936191;153;27300;-74
2022/04/10 11:21:20;;;;;;;2.85;2.00;;;18.20;49.50;;;;;;929565;151;27306;-74
2022/04/10 11:23:47;;;;;;;2.30;1.95;;;18.20;50.40;;;;;;929548;152;27449;-73
2022/04/10 11:26:13;;;;;;;3.60;1.52;;;18.20;49.50;;;;;;924756;154;27321;-74
2022/04/10 11:29:01;;;;;;;2.17;1.95;;;18.20;49.40;;;;;;922886;153;27355;-73
2022/04/10 11:31:44;;;;;;;2.35;1.90;;;18.20;49.40;;;;;;934858;151;27315;-74
2022/04/10 11:34:14;;;;;;;4.37;2.05;;;18.10;49.00;;;;;;934536;152;27730;-74
2022/04/10 11:36:52;;;;;;;2.22;1.57;;;18.00;48.80;;;;;;935082;152;27390;-74
2022/04/10 11:39:17;;;;;;;2.52;2.17;;;18.00;49.30;;;;;;938585;150;27678;-74
2022/04/10 11:41:43;;;;;;;3.52;2.10;;;18.00;49.80;;;;;;941392;152;27369;-74
2022/04/10 11:44:10;;;;;;;2.77;2.02;;;18.00;49.40;;;;;;942662;152;27948;-75
2022/04/10 11:46:37;;;;;;;3.00;2.27;;;18.00;49.40;;;;;;932390;153;27403;-74
2022/04/10 11:49:03;;;;;;;2.85;1.60;;;18.00;49.60;;;;;;939364;150;27284;-74
2022/04/10 11:51:30;;;;;;;2.87;1.92;;;18.10;49.10;;;;;;940046;152;27424;-74
2022/04/10 11:53:56;;;;;;;4.50;2.20;;;18.20;49.50;;;;;;938631;152;27379;-74
2022/04/10 11:56:23;;;;;;;2.75;2.27;;;18.30;49.20;;;;;;939586;152;27342;-74
2022/04/10 11:58:50;;;;;;;2.55;1.87;;;18.30;49.30;;;;;;934864;152;27333;-74
2022/04/10 12:01:16;;;;;;;2.92;1.90;;;18.40;49.30;;;;;;932419;152;27402;-74
2022/04/10 12:03:43;;;;;;;2.52;1.72;;;18.50;49.30;;;;;;927556;152;27324;-74
2022/04/10 12:06:09;;;;;;;1.30;1.20;;;18.50;49.10;;;;;;933672;152;27310;-74
2022/04/10 12:08:36;;;;;;;2.95;1.37;;;18.50;48.80;;;;;;936169;150;27278;-74
2022/04/10 12:11:03;;;;;;;1.90;1.80;;;18.50;48.50;;;;;;947523;150;27298;-74
2022/04/10 12:13:29;;;;;;;2.30;1.50;;;18.40;48.00;;;;;;932452;152;27321;-74
2022/04/10 12:16:01;;;;;;;1.72;1.62;;;18.30;47.80;;;;;;934887;152;27342;-74
2022/04/10 12:18:28;;;;;;;2.40;1.65;;;18.10;47.70;;;;;;942158;150;27267;-74
2022/04/10 12:21:01;;;;;;;1.72;1.55;;;17.90;47.70;;;;;;939905;152;27253;-74
2022/04/10 12:23:24;;;;;;;2.50;1.57;;;17.70;47.80;;;;;;934402;150;27275;-74
2022/04/10 12:25:54;;;;;;;1.60;1.30;;;17.50;48.00;;;;;;937848;152;27784;-75
2022/04/10 12:28:20;;;;;;;1.65;1.50;;;17.30;48.10;;;;;;935873;152;27386;-74
2022/04/10 12:30:47;;;;;;;1.62;1.50;;;17.10;48.00;;;;;;941553;150;27277;-74
2022/04/10 12:33:13;;;;;;;2.77;1.70;;;16.90;47.90;;;;;;933757;151;27458;-74
2022/04/10 12:35:40;;;;;;;1.80;1.70;;;16.80;48.00;;;;;;936274;151;27376;-74
2022/04/10 12:38:07;;;;;;;2.90;2.00;;;16.50;48.20;;;;;;931716;152;27401;-74
2022/04/10 12:40:35;;;;;;;2.23;1.67;;;16.30;48.30;;;;;;930442;153;27303;-74
2022/04/10 12:43:00;;;;;;;1.90;1.73;;;16.10;48.60;;;;;;934608;151;27335;-74
2022/04/10 12:45:32;;;;;;;2.90;1.70;;;15.90;48.70;;;;;;936095;151;27315;-75
2022/04/10 12:47:59;;;;;;;3.53;1.83;;;15.70;49.00;;;;;;926581;153;27347;-75
2022/04/10 12:50:26;;;;;;;3.70;2.10;;;15.40;49.20;;;;;;925625;153;27250;-74
2022/04/10 12:52:58;;;;;;;3.27;1.93;;;15.30;49.50;;;;;;928764;153;27424;-74